Terminal Aerodrome Forecast
Issued by NWS Bismarck, ND

Home | Current Version | Previous Version | Graphics & Text | Print | Product List | Glossary On
Versions: 1 2 3 4 5 6 7 8 9 10 11 12 13
361
FTUS43 KBIS 020527
TAFBIS
TAF
KBIS 020527Z 0206/0306 00000KT P6SM SCT090
     FM021000 VRB03KT P6SM VCSH BKN090
     FM021200 26004KT P6SM -SHRA OVC050
     FM021600 30006KT P6SM BKN070
     FM021800 03006KT P6SM VCTS BKN050CB
     FM030000 06007KT P6SM SCT050=

USA.gov is the U.S. government's official web portal to all federal, state and local government web resources and services.